Terminal Aerodrome Forecast
Issued by NWS

Home | Current Version | Previous Version | Text Only | Print | Product List | Glossary On
Versions: 1 2 3 4 5 6 7 8 9 10 11 12 13 14 15 16 17 18 19 20 21 22 23 24 25 26
000
FTUS45 KLKN 041732
TAFTPH
TAF
KTPH 041732Z 0418/0518 36007KT P6SM FEW070 BKN110 OVC150
     FM042000 27010KT P6SM -SHRA VCTS BKN080CB OVC110
     FM050000 02010KT P6SM VCSH BKN080
     FM051200 01005KT P6SM FEW110=

USA.gov is the U.S. government's official web portal to all federal, state and local government web resources and services.